sensor_id;sensor_type;location;lat;lon;timestamp;P1;durP1;ratioP1;P2;durP2;ratioP2
46334;SDS011;32051;48.882;9.210;2023-07-28T00:01:40;6.68;;;5.28;;
46334;SDS011;32051;48.882;9.210;2023-07-28T00:04:06;8.88;;;6.40;;
46334;SDS011;32051;48.882;9.210;2023-07-28T00:06:34;5.85;;;4.70;;
46334;SDS011;32051;48.882;9.210;2023-07-28T00:09:00;12.40;;;4.85;;
46334;SDS011;32051;48.882;9.210;2023-07-28T00:11:26;8.18;;;4.03;;
46334;SDS011;32051;48.882;9.210;2023-07-28T00:13:53;4.35;;;3.95;;
46334;SDS011;32051;48.882;9.210;2023-07-28T00:16:19;5.80;;;3.95;;
46334;SDS011;32051;48.882;9.210;2023-07-28T00:18:45;7.38;;;3.65;;
46334;SDS011;32051;48.882;9.210;2023-07-28T00:21:11;2.70;;;2.58;;
46334;SDS011;32051;48.882;9.210;2023-07-28T00:23:37;4.45;;;3.25;;
46334;SDS011;32051;48.882;9.210;2023-07-28T00:26:03;4.72;;;3.38;;
46334;SDS011;32051;48.882;9.210;2023-07-28T00:28:29;4.53;;;3.03;;
46334;SDS011;32051;48.882;9.210;2023-07-28T00:30:55;3.20;;;2.90;;
46334;SDS011;32051;48.882;9.210;2023-07-28T00:33:21;2.30;;;2.20;;
46334;SDS011;32051;48.882;9.210;2023-07-28T00:35:47;2.65;;;2.28;;
46334;SDS011;32051;48.882;9.210;2023-07-28T00:38:14;4.97;;;3.03;;
46334;SDS011;32051;48.882;9.210;2023-07-28T00:40:40;2.13;;;2.00;;
46334;SDS011;32051;48.882;9.210;2023-07-28T00:43:06;2.55;;;2.20;;
46334;SDS011;32051;48.882;9.210;2023-07-28T00:45:32;2.38;;;2.13;;
46334;SDS011;32051;48.882;9.210;2023-07-28T00:47:59;4.18;;;3.88;;
46334;SDS011;32051;48.882;9.210;2023-07-28T00:50:26;2.03;;;1.58;;
46334;SDS011;32051;48.882;9.210;2023-07-28T00:52:53;2.45;;;2.30;;
46334;SDS011;32051;48.882;9.210;2023-07-28T00:55:19;5.25;;;2.88;;
46334;SDS011;32051;48.882;9.210;2023-07-28T00:57:46;2.35;;;2.15;;
46334;SDS011;32051;48.882;9.210;2023-07-28T01:00:12;2.38;;;2.28;;
46334;SDS011;32051;48.882;9.210;2023-07-28T01:02:38;3.08;;;2.63;;
46334;SDS011;32051;48.882;9.210;2023-07-28T01:05:06;6.00;;;2.90;;
46334;SDS011;32051;48.882;9.210;2023-07-28T01:07:43;2.67;;;2.47;;
46334;SDS011;32051;48.882;9.210;2023-07-28T01:10:24;3.13;;;2.45;;
46334;SDS011;32051;48.882;9.210;2023-07-28T01:12:51;2.50;;;2.30;;
46334;SDS011;32051;48.882;9.210;2023-07-28T01:15:18;3.35;;;2.60;;
46334;SDS011;32051;48.882;9.210;2023-07-28T01:17:44;4.35;;;2.40;;
46334;SDS011;32051;48.882;9.210;2023-07-28T01:20:10;15.50;;;3.45;;
46334;SDS011;32051;48.882;9.210;2023-07-28T01:22:45;4.72;;;2.05;;
46334;SDS011;32051;48.882;9.210;2023-07-28T01:25:22;5.30;;;2.50;;
46334;SDS011;32051;48.882;9.210;2023-07-28T01:27:52;2.50;;;2.35;;
46334;SDS011;32051;48.882;9.210;2023-07-28T01:30:19;4.68;;;3.05;;
46334;SDS011;32051;48.882;9.210;2023-07-28T01:32:46;2.70;;;2.50;;
46334;SDS011;32051;48.882;9.210;2023-07-28T01:35:13;2.60;;;2.38;;
46334;SDS011;32051;48.882;9.210;2023-07-28T01:37:39;5.97;;;2.53;;
46334;SDS011;32051;48.882;9.210;2023-07-28T01:40:06;2.42;;;2.30;;
46334;SDS011;32051;48.882;9.210;2023-07-28T01:42:32;3.55;;;2.45;;
46334;SDS011;32051;48.882;9.210;2023-07-28T01:44:58;3.78;;;2.38;;
46334;SDS011;32051;48.882;9.210;2023-07-28T01:47:24;7.88;;;2.72;;
46334;SDS011;32051;48.882;9.210;2023-07-28T01:49:50;2.53;;;2.33;;
46334;SDS011;32051;48.882;9.210;2023-07-28T01:52:16;2.47;;;2.03;;
46334;SDS011;32051;48.882;9.210;2023-07-28T01:54:43;9.18;;;2.55;;
46334;SDS011;32051;48.882;9.210;2023-07-28T01:57:09;2.45;;;2.15;;
46334;SDS011;32051;48.882;9.210;2023-07-28T01:59:35;2.25;;;2.10;;
46334;SDS011;32051;48.882;9.210;2023-07-28T02:02:01;7.10;;;2.83;;
46334;SDS011;32051;48.882;9.210;2023-07-28T02:04:27;2.40;;;2.20;;
46334;SDS011;32051;48.882;9.210;2023-07-28T02:06:53;2.85;;;2.22;;
46334;SDS011;32051;48.882;9.210;2023-07-28T02:09:19;2.65;;;2.00;;
46334;SDS011;32051;48.882;9.210;2023-07-28T02:11:45;2.47;;;2.28;;
46334;SDS011;32051;48.882;9.210;2023-07-28T02:14:11;2.20;;;2.05;;
46334;SDS011;32051;48.882;9.210;2023-07-28T02:16:37;5.75;;;2.75;;
46334;SDS011;32051;48.882;9.210;2023-07-28T02:19:03;2.20;;;2.10;;
46334;SDS011;32051;48.882;9.210;2023-07-28T02:21:30;2.63;;;2.42;;
46334;SDS011;32051;48.882;9.210;2023-07-28T02:23:56;2.33;;;1.90;;
46334;SDS011;32051;48.882;9.210;2023-07-28T02:26:22;2.00;;;1.90;;
46334;SDS011;32051;48.882;9.210;2023-07-28T02:28:48;2.20;;;2.00;;
46334;SDS011;32051;48.882;9.210;2023-07-28T02:31:14;2.60;;;2.33;;
46334;SDS011;32051;48.882;9.210;2023-07-28T02:33:40;2.53;;;2.13;;
46334;SDS011;32051;48.882;9.210;2023-07-28T02:36:06;5.07;;;1.73;;
46334;SDS011;32051;48.882;9.210;2023-07-28T02:38:33;2.22;;;2.03;;
46334;SDS011;32051;48.882;9.210;2023-07-28T02:40:59;2.00;;;1.90;;
46334;SDS011;32051;48.882;9.210;2023-07-28T02:43:25;2.85;;;2.17;;
46334;SDS011;32051;48.882;9.210;2023-07-28T02:45:54;5.65;;;2.30;;
46334;SDS011;32051;48.882;9.210;2023-07-28T02:48:21;3.97;;;1.88;;
46334;SDS011;32051;48.882;9.210;2023-07-28T02:50:48;3.85;;;2.13;;
46334;SDS011;32051;48.882;9.210;2023-07-28T02:53:15;2.22;;;2.03;;
46334;SDS011;32051;48.882;9.210;2023-07-28T02:55:41;10.15;;;2.42;;
46334;SDS011;32051;48.882;9.210;2023-07-28T02:58:08;7.03;;;2.35;;
46334;SDS011;32051;48.882;9.210;2023-07-28T03:00:36;3.92;;;2.35;;
46334;SDS011;32051;48.882;9.210;2023-07-28T03:03:03;5.68;;;2.25;;
46334;SDS011;32051;48.882;9.210;2023-07-28T03:05:31;2.03;;;1.92;;
46334;SDS011;32051;48.882;9.210;2023-07-28T03:08:14;2.38;;;2.17;;
46334;SDS011;32051;48.882;9.210;2023-07-28T03:10:40;3.38;;;2.28;;
46334;SDS011;32051;48.882;9.210;2023-07-28T03:13:07;4.00;;;1.90;;
46334;SDS011;32051;48.882;9.210;2023-07-28T03:15:33;2.50;;;2.40;;
46334;SDS011;32051;48.882;9.210;2023-07-28T03:17:59;4.75;;;2.10;;
46334;SDS011;32051;48.882;9.210;2023-07-28T03:20:25;2.67;;;2.47;;
46334;SDS011;32051;48.882;9.210;2023-07-28T03:22:52;3.05;;;2.00;;
46334;SDS011;32051;48.882;9.210;2023-07-28T03:25:20;4.05;;;2.00;;
46334;SDS011;32051;48.882;9.210;2023-07-28T03:27:46;4.70;;;2.95;;
46334;SDS011;32051;48.882;9.210;2023-07-28T03:30:12;3.85;;;1.73;;
46334;SDS011;32051;48.882;9.210;2023-07-28T03:32:38;3.25;;;2.38;;
46334;SDS011;32051;48.882;9.210;2023-07-28T03:35:05;5.63;;;2.08;;
46334;SDS011;32051;48.882;9.210;2023-07-28T03:37:37;2.90;;;2.70;;
46334;SDS011;32051;48.882;9.210;2023-07-28T03:40:04;4.68;;;3.22;;
46334;SDS011;32051;48.882;9.210;2023-07-28T03:42:41;1.73;;;1.63;;
46334;SDS011;32051;48.882;9.210;2023-07-28T03:45:08;2.83;;;1.83;;
46334;SDS011;32051;48.882;9.210;2023-07-28T03:47:34;2.63;;;2.40;;
46334;SDS011;32051;48.882;9.210;2023-07-28T03:50:00;2.20;;;2.10;;
46334;SDS011;32051;48.882;9.210;2023-07-28T03:52:26;2.40;;;2.20;;
46334;SDS011;32051;48.882;9.210;2023-07-28T03:54:52;2.03;;;1.92;;
46334;SDS011;32051;48.882;9.210;2023-07-28T03:57:18;6.85;;;2.47;;
46334;SDS011;32051;48.882;9.210;2023-07-28T03:59:44;2.45;;;2.25;;
46334;SDS011;32051;48.882;9.210;2023-07-28T04:02:10;4.47;;;2.13;;
46334;SDS011;32051;48.882;9.210;2023-07-28T04:04:36;4.03;;;2.08;;
46334;SDS011;32051;48.882;9.210;2023-07-28T04:07:03;2.40;;;2.20;;
46334;SDS011;32051;48.882;9.210;2023-07-28T04:09:29;3.40;;;2.63;;
46334;SDS011;32051;48.882;9.210;2023-07-28T04:11:55;2.40;;;2.20;;
46334;SDS011;32051;48.882;9.210;2023-07-28T04:14:21;4.57;;;3.40;;
46334;SDS011;32051;48.882;9.210;2023-07-28T04:16:47;3.47;;;2.90;;
46334;SDS011;32051;48.882;9.210;2023-07-28T04:19:13;2.63;;;2.42;;
46334;SDS011;32051;48.882;9.210;2023-07-28T04:21:39;2.55;;;2.35;;
46334;SDS011;32051;48.882;9.210;2023-07-28T04:24:06;4.68;;;2.10;;
46334;SDS011;32051;48.882;9.210;2023-07-28T04:26:35;2.60;;;2.42;;
46334;SDS011;32051;48.882;9.210;2023-07-28T04:29:02;2.33;;;2.13;;
46334;SDS011;32051;48.882;9.210;2023-07-28T04:31:29;6.05;;;2.78;;
46334;SDS011;32051;48.882;9.210;2023-07-28T04:34:01;2.35;;;2.15;;
46334;SDS011;32051;48.882;9.210;2023-07-28T04:36:48;3.10;;;2.80;;
46334;SDS011;32051;48.882;9.210;2023-07-28T04:39:16;2.67;;;2.47;;
46334;SDS011;32051;48.882;9.210;2023-07-28T04:41:43;4.95;;;2.20;;
46334;SDS011;32051;48.882;9.210;2023-07-28T04:44:09;5.88;;;2.92;;
46334;SDS011;32051;48.882;9.210;2023-07-28T04:46:38;2.78;;;2.60;;
46334;SDS011;32051;48.882;9.210;2023-07-28T04:49:08;4.65;;;4.13;;
46334;SDS011;32051;48.882;9.210;2023-07-28T04:52:07;3.00;;;2.75;;
46334;SDS011;32051;48.882;9.210;2023-07-28T04:54:53;2.90;;;2.70;;
46334;SDS011;32051;48.882;9.210;2023-07-28T04:57:20;4.20;;;2.75;;
46334;SDS011;32051;48.882;9.210;2023-07-28T04:59:46;6.00;;;2.95;;
46334;SDS011;32051;48.882;9.210;2023-07-28T05:02:12;3.22;;;2.92;;
46334;SDS011;32051;48.882;9.210;2023-07-28T05:04:38;4.47;;;2.40;;
46334;SDS011;32051;48.882;9.210;2023-07-28T05:07:04;3.80;;;2.80;;
46334;SDS011;32051;48.882;9.210;2023-07-28T05:09:31;4.78;;;2.95;;
46334;SDS011;32051;48.882;9.210;2023-07-28T05:11:57;2.97;;;2.78;;
46334;SDS011;32051;48.882;9.210;2023-07-28T05:14:24;7.15;;;2.88;;
46334;SDS011;32051;48.882;9.210;2023-07-28T05:16:50;2.72;;;2.33;;
46334;SDS011;32051;48.882;9.210;2023-07-28T05:19:42;3.08;;;2.88;;
46334;SDS011;32051;48.882;9.210;2023-07-28T05:22:31;3.28;;;2.97;;
46334;SDS011;32051;48.882;9.210;2023-07-28T05:24:57;8.82;;;3.08;;
46334;SDS011;32051;48.882;9.210;2023-07-28T05:27:27;3.05;;;2.85;;
46334;SDS011;32051;48.882;9.210;2023-07-28T05:29:53;5.15;;;2.75;;
46334;SDS011;32051;48.882;9.210;2023-07-28T05:32:19;4.18;;;3.38;;
46334;SDS011;32051;48.882;9.210;2023-07-28T05:35:02;2.95;;;2.75;;
46334;SDS011;32051;48.882;9.210;2023-07-28T05:37:29;7.13;;;2.58;;
46334;SDS011;32051;48.882;9.210;2023-07-28T05:39:55;2.95;;;2.70;;
46334;SDS011;32051;48.882;9.210;2023-07-28T05:42:21;3.00;;;2.72;;
46334;SDS011;32051;48.882;9.210;2023-07-28T05:44:49;3.10;;;2.90;;
46334;SDS011;32051;48.882;9.210;2023-07-28T05:47:18;3.85;;;2.85;;
46334;SDS011;32051;48.882;9.210;2023-07-28T05:49:44;2.92;;;2.72;;
46334;SDS011;32051;48.882;9.210;2023-07-28T05:52:10;5.55;;;2.63;;
46334;SDS011;32051;48.882;9.210;2023-07-28T05:54:36;3.20;;;3.00;;
46334;SDS011;32051;48.882;9.210;2023-07-28T05:57:02;10.48;;;4.35;;
46334;SDS011;32051;48.882;9.210;2023-07-28T05:59:28;9.55;;;3.60;;
46334;SDS011;32051;48.882;9.210;2023-07-28T06:01:54;3.47;;;3.15;;
46334;SDS011;32051;48.882;9.210;2023-07-28T06:04:33;4.40;;;2.92;;
46334;SDS011;32051;48.882;9.210;2023-07-28T06:07:01;8.02;;;3.63;;
46334;SDS011;32051;48.882;9.210;2023-07-28T06:09:27;4.20;;;3.78;;
46334;SDS011;32051;48.882;9.210;2023-07-28T06:11:53;5.30;;;3.50;;
46334;SDS011;32051;48.882;9.210;2023-07-28T06:14:22;4.25;;;3.80;;
46334;SDS011;32051;48.882;9.210;2023-07-28T06:16:48;3.53;;;3.22;;
46334;SDS011;32051;48.882;9.210;2023-07-28T06:19:14;7.32;;;3.45;;
46334;SDS011;32051;48.882;9.210;2023-07-28T06:21:42;5.63;;;3.92;;
46334;SDS011;32051;48.882;9.210;2023-07-28T06:24:08;9.93;;;3.40;;
46334;SDS011;32051;48.882;9.210;2023-07-28T06:26:34;6.03;;;3.58;;
46334;SDS011;32051;48.882;9.210;2023-07-28T06:29:00;7.93;;;3.50;;
46334;SDS011;32051;48.882;9.210;2023-07-28T06:31:27;8.70;;;4.38;;
46334;SDS011;32051;48.882;9.210;2023-07-28T06:33:53;5.07;;;3.65;;
46334;SDS011;32051;48.882;9.210;2023-07-28T06:36:19;5.15;;;3.38;;
46334;SDS011;32051;48.882;9.210;2023-07-28T06:38:45;6.07;;;4.03;;
46334;SDS011;32051;48.882;9.210;2023-07-28T06:41:13;8.20;;;3.70;;
46334;SDS011;32051;48.882;9.210;2023-07-28T06:43:40;5.38;;;3.15;;
46334;SDS011;32051;48.882;9.210;2023-07-28T06:46:07;4.97;;;3.08;;
46334;SDS011;32051;48.882;9.210;2023-07-28T06:48:33;5.80;;;3.67;;
46334;SDS011;32051;48.882;9.210;2023-07-28T06:50:59;7.32;;;3.67;;
46334;SDS011;32051;48.882;9.210;2023-07-28T06:53:26;3.13;;;2.83;;
46334;SDS011;32051;48.882;9.210;2023-07-28T06:55:52;4.53;;;3.30;;
46334;SDS011;32051;48.882;9.210;2023-07-28T06:58:21;3.88;;;3.58;;
46334;SDS011;32051;48.882;9.210;2023-07-28T07:00:47;6.10;;;3.70;;
46334;SDS011;32051;48.882;9.210;2023-07-28T07:03:13;9.02;;;4.22;;
46334;SDS011;32051;48.882;9.210;2023-07-28T07:05:40;5.57;;;4.13;;
46334;SDS011;32051;48.882;9.210;2023-07-28T07:08:06;11.07;;;4.07;;
46334;SDS011;32051;48.882;9.210;2023-07-28T07:10:33;7.25;;;2.88;;
46334;SDS011;32051;48.882;9.210;2023-07-28T07:12:59;3.75;;;3.45;;
46334;SDS011;32051;48.882;9.210;2023-07-28T07:15:25;4.82;;;4.32;;
46334;SDS011;32051;48.882;9.210;2023-07-28T07:17:51;7.03;;;3.58;;
46334;SDS011;32051;48.882;9.210;2023-07-28T07:20:18;3.70;;;3.30;;
46334;SDS011;32051;48.882;9.210;2023-07-28T07:22:44;2.90;;;2.70;;
46334;SDS011;32051;48.882;9.210;2023-07-28T07:25:10;3.67;;;2.83;;
46334;SDS011;32051;48.882;9.210;2023-07-28T07:27:36;3.53;;;3.33;;
46334;SDS011;32051;48.882;9.210;2023-07-28T07:30:02;6.95;;;3.17;;
46334;SDS011;32051;48.882;9.210;2023-07-28T07:32:29;4.07;;;3.78;;
46334;SDS011;32051;48.882;9.210;2023-07-28T07:34:55;6.40;;;3.53;;
46334;SDS011;32051;48.882;9.210;2023-07-28T07:37:21;4.70;;;3.97;;
46334;SDS011;32051;48.882;9.210;2023-07-28T07:39:47;3.25;;;2.88;;
46334;SDS011;32051;48.882;9.210;2023-07-28T07:42:14;4.18;;;3.03;;
46334;SDS011;32051;48.882;9.210;2023-07-28T07:44:40;3.40;;;3.20;;
46334;SDS011;32051;48.882;9.210;2023-07-28T07:47:14;7.22;;;3.17;;
46334;SDS011;32051;48.882;9.210;2023-07-28T07:49:41;4.53;;;3.42;;
46334;SDS011;32051;48.882;9.210;2023-07-28T07:52:07;4.05;;;3.38;;
46334;SDS011;32051;48.882;9.210;2023-07-28T07:54:36;4.20;;;3.90;;
46334;SDS011;32051;48.882;9.210;2023-07-28T07:57:03;5.15;;;3.83;;
46334;SDS011;32051;48.882;9.210;2023-07-28T07:59:29;7.22;;;3.90;;
46334;SDS011;32051;48.882;9.210;2023-07-28T08:01:57;8.05;;;3.90;;
46334;SDS011;32051;48.882;9.210;2023-07-28T08:04:25;5.45;;;3.97;;
46334;SDS011;32051;48.882;9.210;2023-07-28T08:06:53;4.93;;;4.10;;
46334;SDS011;32051;48.882;9.210;2023-07-28T08:09:19;4.25;;;3.92;;
46334;SDS011;32051;48.882;9.210;2023-07-28T08:11:45;5.35;;;3.65;;
46334;SDS011;32051;48.882;9.210;2023-07-28T08:14:12;6.45;;;4.03;;
46334;SDS011;32051;48.882;9.210;2023-07-28T08:16:38;3.85;;;3.50;;
46334;SDS011;32051;48.882;9.210;2023-07-28T08:19:04;3.70;;;3.38;;
46334;SDS011;32051;48.882;9.210;2023-07-28T08:21:30;3.92;;;3.72;;
46334;SDS011;32051;48.882;9.210;2023-07-28T08:24:01;6.95;;;3.53;;
46334;SDS011;32051;48.882;9.210;2023-07-28T08:26:29;6.57;;;3.88;;
46334;SDS011;32051;48.882;9.210;2023-07-28T08:28:55;13.38;;;4.25;;
46334;SDS011;32051;48.882;9.210;2023-07-28T08:31:21;6.72;;;3.67;;
46334;SDS011;32051;48.882;9.210;2023-07-28T08:33:47;3.75;;;3.55;;
46334;SDS011;32051;48.882;9.210;2023-07-28T08:36:13;6.43;;;4.05;;
46334;SDS011;32051;48.882;9.210;2023-07-28T08:38:39;6.63;;;3.80;;
46334;SDS011;32051;48.882;9.210;2023-07-28T08:41:06;6.15;;;3.40;;
46334;SDS011;32051;48.882;9.210;2023-07-28T08:43:32;2.88;;;2.67;;
46334;SDS011;32051;48.882;9.210;2023-07-28T08:45:58;2.03;;;1.75;;
46334;SDS011;32051;48.882;9.210;2023-07-28T08:48:24;1.10;;;1.10;;
46334;SDS011;32051;48.882;9.210;2023-07-28T08:50:50;1.13;;;0.90;;
46334;SDS011;32051;48.882;9.210;2023-07-28T08:53:16;2.58;;;1.25;;
46334;SDS011;32051;48.882;9.210;2023-07-28T08:55:43;1.35;;;1.00;;
46334;SDS011;32051;48.882;9.210;2023-07-28T09:00:41;1.50;;;1.42;;
46334;SDS011;32051;48.882;9.210;2023-07-28T09:03:10;1.40;;;0.95;;
46334;SDS011;32051;48.882;9.210;2023-07-28T09:05:36;0.73;;;0.73;;
46334;SDS011;32051;48.882;9.210;2023-07-28T09:08:05;0.88;;;0.88;;
46334;SDS011;32051;48.882;9.210;2023-07-28T09:10:49;8.43;;;0.98;;
46334;SDS011;32051;48.882;9.210;2023-07-28T09:13:17;2.58;;;0.93;;
46334;SDS011;32051;48.882;9.210;2023-07-28T09:15:43;1.67;;;0.85;;
46334;SDS011;32051;48.882;9.210;2023-07-28T09:18:10;4.18;;;1.08;;
46334;SDS011;32051;48.882;9.210;2023-07-28T09:20:37;2.75;;;1.00;;
46334;SDS011;32051;48.882;9.210;2023-07-28T09:23:04;2.08;;;1.33;;
46334;SDS011;32051;48.882;9.210;2023-07-28T09:25:30;1.58;;;1.42;;
46334;SDS011;32051;48.882;9.210;2023-07-28T09:27:57;1.33;;;1.10;;
46334;SDS011;32051;48.882;9.210;2023-07-28T09:30:23;1.88;;;0.80;;
46334;SDS011;32051;48.882;9.210;2023-07-28T09:32:51;0.88;;;0.88;;
46334;SDS011;32051;48.882;9.210;2023-07-28T09:35:17;3.17;;;0.95;;
46334;SDS011;32051;48.882;9.210;2023-07-28T09:37:44;4.35;;;1.95;;
46334;SDS011;32051;48.882;9.210;2023-07-28T09:40:13;0.98;;;0.98;;
46334;SDS011;32051;48.882;9.210;2023-07-28T09:42:39;0.88;;;0.88;;
46334;SDS011;32051;48.882;9.210;2023-07-28T09:45:06;1.02;;;1.02;;
46334;SDS011;32051;48.882;9.210;2023-07-28T09:47:33;2.67;;;0.95;;
46334;SDS011;32051;48.882;9.210;2023-07-28T09:50:03;1.33;;;1.20;;
46334;SDS011;32051;48.882;9.210;2023-07-28T09:52:33;3.90;;;1.23;;
46334;SDS011;32051;48.882;9.210;2023-07-28T09:55:03;0.82;;;0.82;;
46334;SDS011;32051;48.882;9.210;2023-07-28T09:57:31;1.50;;;1.10;;
46334;SDS011;32051;48.882;9.210;2023-07-28T09:59:58;1.20;;;1.10;;
46334;SDS011;32051;48.882;9.210;2023-07-28T10:02:25;1.33;;;1.23;;
46334;SDS011;32051;48.882;9.210;2023-07-28T10:04:52;0.90;;;0.90;;
46334;SDS011;32051;48.882;9.210;2023-07-28T10:07:19;2.00;;;1.20;;
46334;SDS011;32051;48.882;9.210;2023-07-28T10:09:45;1.23;;;0.85;;
46334;SDS011;32051;48.882;9.210;2023-07-28T10:12:18;1.73;;;0.88;;
46334;SDS011;32051;48.882;9.210;2023-07-28T10:14:46;0.77;;;0.77;;
46334;SDS011;32051;48.882;9.210;2023-07-28T10:17:15;1.20;;;1.10;;
46334;SDS011;32051;48.882;9.210;2023-07-28T10:19:42;0.80;;;0.80;;
46334;SDS011;32051;48.882;9.210;2023-07-28T10:22:09;1.00;;;1.00;;
46334;SDS011;32051;48.882;9.210;2023-07-28T10:24:51;3.33;;;1.15;;
46334;SDS011;32051;48.882;9.210;2023-07-28T10:30:03;4.88;;;1.00;;
46334;SDS011;32051;48.882;9.210;2023-07-28T10:32:36;1.10;;;1.10;;
46334;SDS011;32051;48.882;9.210;2023-07-28T10:35:07;6.07;;;1.10;;
46334;SDS011;32051;48.882;9.210;2023-07-28T10:37:35;2.47;;;0.88;;
46334;SDS011;32051;48.882;9.210;2023-07-28T10:42:47;4.47;;;1.42;;
46334;SDS011;32051;48.882;9.210;2023-07-28T10:45:13;1.00;;;0.85;;
46334;SDS011;32051;48.882;9.210;2023-07-28T10:47:40;0.95;;;0.93;;
46334;SDS011;32051;48.882;9.210;2023-07-28T10:50:09;0.57;;;0.55;;
46334;SDS011;32051;48.882;9.210;2023-07-28T10:52:39;0.65;;;0.65;;
46334;SDS011;32051;48.882;9.210;2023-07-28T10:55:11;0.77;;;0.77;;
46334;SDS011;32051;48.882;9.210;2023-07-28T10:57:38;1.92;;;0.98;;
46334;SDS011;32051;48.882;9.210;2023-07-28T11:00:04;3.65;;;1.13;;
46334;SDS011;32051;48.882;9.210;2023-07-28T11:02:32;0.95;;;0.95;;
46334;SDS011;32051;48.882;9.210;2023-07-28T11:04:58;1.23;;;1.13;;
46334;SDS011;32051;48.882;9.210;2023-07-28T11:07:24;1.02;;;0.98;;
46334;SDS011;32051;48.882;9.210;2023-07-28T11:09:52;3.33;;;1.67;;
46334;SDS011;32051;48.882;9.210;2023-07-28T11:12:19;5.00;;;1.33;;
46334;SDS011;32051;48.882;9.210;2023-07-28T11:14:45;4.65;;;2.20;;
46334;SDS011;32051;48.882;9.210;2023-07-28T11:17:11;2.05;;;1.17;;
46334;SDS011;32051;48.882;9.210;2023-07-28T11:19:37;1.88;;;1.30;;
46334;SDS011;32051;48.882;9.210;2023-07-28T11:22:03;1.80;;;1.70;;
46334;SDS011;32051;48.882;9.210;2023-07-28T11:24:29;0.70;;;0.70;;
46334;SDS011;32051;48.882;9.210;2023-07-28T11:26:56;0.82;;;0.82;;
46334;SDS011;32051;48.882;9.210;2023-07-28T11:29:24;0.95;;;0.93;;
46334;SDS011;32051;48.882;9.210;2023-07-28T11:31:50;1.02;;;1.02;;
46334;SDS011;32051;48.882;9.210;2023-07-28T11:34:16;0.70;;;0.63;;
46334;SDS011;32051;48.882;9.210;2023-07-28T11:36:43;1.70;;;0.90;;
46334;SDS011;32051;48.882;9.210;2023-07-28T11:39:09;0.93;;;0.80;;
46334;SDS011;32051;48.882;9.210;2023-07-28T11:41:35;2.45;;;0.98;;
46334;SDS011;32051;48.882;9.210;2023-07-28T11:44:02;1.08;;;1.00;;
46334;SDS011;32051;48.882;9.210;2023-07-28T11:46:40;4.13;;;0.70;;
46334;SDS011;32051;48.882;9.210;2023-07-28T11:49:19;0.45;;;0.45;;
46334;SDS011;32051;48.882;9.210;2023-07-28T11:51:49;2.13;;;0.90;;
46334;SDS011;32051;48.882;9.210;2023-07-28T11:54:17;0.85;;;0.82;;
46334;SDS011;32051;48.882;9.210;2023-07-28T11:56:47;0.85;;;0.85;;
46334;SDS011;32051;48.882;9.210;2023-07-28T11:59:16;0.80;;;0.80;;
46334;SDS011;32051;48.882;9.210;2023-07-28T12:02:03;0.77;;;0.77;;
46334;SDS011;32051;48.882;9.210;2023-07-28T12:04:36;1.20;;;0.93;;
46334;SDS011;32051;48.882;9.210;2023-07-28T12:07:07;1.27;;;1.17;;
46334;SDS011;32051;48.882;9.210;2023-07-28T12:09:47;0.82;;;0.82;;
46334;SDS011;32051;48.882;9.210;2023-07-28T12:12:16;0.90;;;0.90;;
46334;SDS011;32051;48.882;9.210;2023-07-28T12:14:43;0.70;;;0.70;;
46334;SDS011;32051;48.882;9.210;2023-07-28T12:17:15;1.25;;;0.82;;
46334;SDS011;32051;48.882;9.210;2023-07-28T12:19:58;7.18;;;0.65;;
46334;SDS011;32051;48.882;9.210;2023-07-28T12:22:25;2.25;;;1.00;;
46334;SDS011;32051;48.882;9.210;2023-07-28T12:24:52;1.05;;;1.05;;
46334;SDS011;32051;48.882;9.210;2023-07-28T12:27:18;1.67;;;0.88;;
46334;SDS011;32051;48.882;9.210;2023-07-28T12:29:50;1.73;;;1.63;;
46334;SDS011;32051;48.882;9.210;2023-07-28T12:32:16;1.00;;;1.00;;
46334;SDS011;32051;48.882;9.210;2023-07-28T12:34:42;1.50;;;1.40;;
46334;SDS011;32051;48.882;9.210;2023-07-28T12:37:08;2.50;;;1.30;;
46334;SDS011;32051;48.882;9.210;2023-07-28T12:39:37;0.98;;;0.98;;
46334;SDS011;32051;48.882;9.210;2023-07-28T12:42:07;1.10;;;1.10;;
46334;SDS011;32051;48.882;9.210;2023-07-28T12:44:34;2.80;;;1.30;;
46334;SDS011;32051;48.882;9.210;2023-07-28T12:47:01;3.15;;;1.70;;
46334;SDS011;32051;48.882;9.210;2023-07-28T12:49:28;1.42;;;1.17;;
46334;SDS011;32051;48.882;9.210;2023-07-28T12:51:54;1.35;;;1.02;;
46334;SDS011;32051;48.882;9.210;2023-07-28T12:54:21;1.73;;;1.40;;
46334;SDS011;32051;48.882;9.210;2023-07-28T12:56:48;1.35;;;1.25;;
46334;SDS011;32051;48.882;9.210;2023-07-28T12:59:14;1.70;;;1.25;;
46334;SDS011;32051;48.882;9.210;2023-07-28T13:01:40;1.20;;;1.10;;
46334;SDS011;32051;48.882;9.210;2023-07-28T13:04:06;1.88;;;1.08;;
46334;SDS011;32051;48.882;9.210;2023-07-28T13:06:33;2.35;;;1.20;;
46334;SDS011;32051;48.882;9.210;2023-07-28T13:08:59;2.58;;;1.85;;
46334;SDS011;32051;48.882;9.210;2023-07-28T13:11:25;1.80;;;1.55;;
46334;SDS011;32051;48.882;9.210;2023-07-28T13:13:51;1.60;;;1.50;;
46334;SDS011;32051;48.882;9.210;2023-07-28T13:16:17;1.52;;;1.42;;
46334;SDS011;32051;48.882;9.210;2023-07-28T13:18:43;2.00;;;1.90;;
46334;SDS011;32051;48.882;9.210;2023-07-28T13:21:10;1.58;;;1.48;;
46334;SDS011;32051;48.882;9.210;2023-07-28T13:23:36;1.52;;;1.42;;
46334;SDS011;32051;48.882;9.210;2023-07-28T13:26:02;1.70;;;1.60;;
46334;SDS011;32051;48.882;9.210;2023-07-28T13:28:32;8.10;;;1.63;;
46334;SDS011;32051;48.882;9.210;2023-07-28T13:31:00;1.98;;;1.48;;
46334;SDS011;32051;48.882;9.210;2023-07-28T13:33:26;3.08;;;1.58;;
46334;SDS011;32051;48.882;9.210;2023-07-28T13:35:53;3.03;;;1.90;;
46334;SDS011;32051;48.882;9.210;2023-07-28T13:38:19;2.38;;;1.60;;
46334;SDS011;32051;48.882;9.210;2023-07-28T13:40:45;1.48;;;1.38;;
46334;SDS011;32051;48.882;9.210;2023-07-28T13:43:11;1.60;;;1.50;;
46334;SDS011;32051;48.882;9.210;2023-07-28T13:45:37;1.88;;;1.77;;
46334;SDS011;32051;48.882;9.210;2023-07-28T13:48:03;1.75;;;1.65;;
46334;SDS011;32051;48.882;9.210;2023-07-28T13:50:29;4.20;;;1.52;;
46334;SDS011;32051;48.882;9.210;2023-07-28T13:52:55;2.25;;;1.80;;
46334;SDS011;32051;48.882;9.210;2023-07-28T13:55:21;1.88;;;1.75;;
46334;SDS011;32051;48.882;9.210;2023-07-28T13:57:48;3.17;;;2.38;;
46334;SDS011;32051;48.882;9.210;2023-07-28T14:00:14;6.43;;;2.22;;
46334;SDS011;32051;48.882;9.210;2023-07-28T14:02:40;2.80;;;2.55;;
46334;SDS011;32051;48.882;9.210;2023-07-28T14:05:06;2.30;;;2.20;;
46334;SDS011;32051;48.882;9.210;2023-07-28T14:07:33;2.40;;;2.17;;
46334;SDS011;32051;48.882;9.210;2023-07-28T14:10:00;3.83;;;2.05;;
46334;SDS011;32051;48.882;9.210;2023-07-28T14:12:26;3.33;;;2.60;;
46334;SDS011;32051;48.882;9.210;2023-07-28T14:14:52;8.50;;;2.53;;
46334;SDS011;32051;48.882;9.210;2023-07-28T14:17:18;2.70;;;2.50;;
46334;SDS011;32051;48.882;9.210;2023-07-28T14:19:44;6.15;;;5.20;;
46334;SDS011;32051;48.882;9.210;2023-07-28T14:22:10;7.82;;;4.72;;
46334;SDS011;32051;48.882;9.210;2023-07-28T14:24:36;5.43;;;4.22;;
46334;SDS011;32051;48.882;9.210;2023-07-28T14:27:02;4.63;;;4.07;;
46334;SDS011;32051;48.882;9.210;2023-07-28T14:29:29;3.10;;;2.88;;
46334;SDS011;32051;48.882;9.210;2023-07-28T14:31:55;3.08;;;2.88;;
46334;SDS011;32051;48.882;9.210;2023-07-28T14:34:21;3.10;;;2.83;;
46334;SDS011;32051;48.882;9.210;2023-07-28T14:36:47;3.70;;;3.22;;
46334;SDS011;32051;48.882;9.210;2023-07-28T14:39:13;3.47;;;3.17;;
46334;SDS011;32051;48.882;9.210;2023-07-28T14:41:39;5.18;;;3.88;;
46334;SDS011;32051;48.882;9.210;2023-07-28T14:44:05;4.85;;;4.40;;
46334;SDS011;32051;48.882;9.210;2023-07-28T14:46:31;4.80;;;3.80;;
46334;SDS011;32051;48.882;9.210;2023-07-28T14:48:57;3.22;;;3.03;;
46334;SDS011;32051;48.882;9.210;2023-07-28T14:51:23;3.75;;;3.45;;
46334;SDS011;32051;48.882;9.210;2023-07-28T14:53:49;5.38;;;3.38;;
46334;SDS011;32051;48.882;9.210;2023-07-28T14:56:15;3.20;;;2.90;;
46334;SDS011;32051;48.882;9.210;2023-07-28T14:58:42;2.85;;;2.65;;